createdAt,value
2022-09-28T00:01:08.928Z,100.00
2022-09-28T00:03:36.627Z,100.00
2022-09-28T00:06:08.712Z,100.00
2022-09-28T00:08:36.380Z,100.00
2022-09-28T00:11:05.544Z,100.00
2022-09-28T00:13:33.322Z,100.00
2022-09-28T00:16:02.215Z,100.00
2022-09-28T00:18:29.898Z,100.00
2022-09-28T00:21:01.924Z,100.00
2022-09-28T00:23:28.899Z,100.00
2022-09-28T00:25:55.653Z,100.00
2022-09-28T00:28:22.485Z,100.00
2022-09-28T00:30:55.810Z,100.00
2022-09-28T00:33:22.669Z,100.00
2022-09-28T00:35:58.884Z,100.00
2022-09-28T00:38:29.684Z,100.00
2022-09-28T00:40:57.362Z,100.00
2022-09-28T00:43:24.692Z,100.00
2022-09-28T00:46:06.269Z,100.00
2022-09-28T00:48:38.716Z,100.00
2022-09-28T00:51:10.327Z,100.00
2022-09-28T00:53:39.231Z,100.00
2022-09-28T00:56:11.254Z,100.00
2022-09-28T00:58:45.580Z,100.00
2022-09-28T01:01:13.013Z,100.00
2022-09-28T01:03:45.533Z,100.00
2022-09-28T01:06:24.616Z,100.00
2022-09-28T01:08:53.710Z,100.00
2022-09-28T01:11:21.275Z,100.00
2022-09-28T01:13:53.338Z,100.00
2022-09-28T01:16:41.719Z,100.00
2022-09-28T01:19:51.866Z,100.00
2022-09-28T01:22:54.326Z,100.00
2022-09-28T01:25:38.570Z,100.00
2022-09-28T01:28:11.472Z,100.00
2022-09-28T01:31:12.726Z,100.00
2022-09-28T01:33:42.135Z,100.00
2022-09-28T01:36:24.116Z,100.00
2022-09-28T01:38:59.186Z,100.00
2022-09-28T01:41:28.855Z,100.00
2022-09-28T01:43:59.529Z,100.00
2022-09-28T01:46:37.510Z,100.00
2022-09-28T01:49:13.676Z,100.00
2022-09-28T01:52:10.874Z,100.00
2022-09-28T01:54:52.469Z,100.00
2022-09-28T01:57:44.660Z,100.00
2022-09-28T02:00:15.198Z,100.00
2022-09-28T02:02:45.684Z,100.00
2022-09-28T02:05:20.780Z,100.00
2022-09-28T02:08:12.031Z,100.00
2022-09-28T02:10:52.892Z,100.00
2022-09-28T02:13:46.360Z,100.00
2022-09-28T02:16:30.204Z,100.00
2022-09-28T02:18:58.112Z,100.00
2022-09-28T02:21:34.365Z,100.00
2022-09-28T02:24:08.192Z,100.00
2022-09-28T02:26:41.634Z,100.00
2022-09-28T02:29:08.612Z,100.00
2022-09-28T02:31:36.166Z,100.00
2022-09-28T02:34:03.520Z,100.00
2022-09-28T02:36:31.498Z,100.00
2022-09-28T02:38:59.058Z,100.00
2022-09-28T02:41:49.765Z,100.00
2022-09-28T02:44:25.365Z,100.00
2022-09-28T02:47:12.247Z,100.00
2022-09-28T02:49:54.804Z,100.00
2022-09-28T02:52:36.419Z,100.00
2022-09-28T02:55:18.721Z,100.00
2022-09-28T02:58:21.579Z,100.00
2022-09-28T03:00:59.924Z,100.00
2022-09-28T03:03:32.795Z,100.00
2022-09-28T03:06:20.336Z,100.00
2022-09-28T03:08:58.018Z,100.00
2022-09-28T03:11:36.803Z,100.00
2022-09-28T03:14:05.030Z,100.00
2022-09-28T03:16:46.461Z,100.00
2022-09-28T03:19:15.682Z,100.00
2022-09-28T03:21:42.513Z,100.00
2022-09-28T03:24:11.182Z,100.00
2022-09-28T03:26:39.262Z,100.00
2022-09-28T03:29:06.597Z,100.00
2022-09-28T03:31:35.250Z,100.00
2022-09-28T03:34:02.590Z,100.00
2022-09-28T03:36:30.222Z,100.00
2022-09-28T03:38:57.941Z,100.00
2022-09-28T03:41:25.531Z,100.00
2022-09-28T03:43:52.274Z,100.00
2022-09-28T03:46:19.319Z,100.00
2022-09-28T03:48:50.102Z,100.00
2022-09-28T03:51:16.878Z,100.00
2022-09-28T03:53:43.750Z,100.00
2022-09-28T03:56:13.718Z,100.00
2022-09-28T03:58:41.536Z,100.00
2022-09-28T04:01:18.524Z,100.00
2022-09-28T04:03:47.595Z,100.00
2022-09-28T04:06:14.611Z,100.00
2022-09-28T04:08:43.224Z,100.00
2022-09-28T04:11:10.576Z,100.00
2022-09-28T04:13:37.587Z,100.00
2022-09-28T04:16:07.565Z,100.00
2022-09-28T04:18:35.620Z,100.00
2022-09-28T04:21:26.876Z,100.00
2022-09-28T04:24:04.089Z,100.00
2022-09-28T04:26:31.163Z,100.00
2022-09-28T04:29:16.622Z,100.00
2022-09-28T04:31:55.463Z,100.00
2022-09-28T04:34:48.532Z,100.00
2022-09-28T04:37:15.788Z,100.00
2022-09-28T04:39:47.482Z,100.00
2022-09-28T04:42:17.564Z,100.00
2022-09-28T04:44:44.779Z,100.00
2022-09-28T04:47:12.268Z,100.00
2022-09-28T04:49:57.804Z,100.00
2022-09-28T04:52:36.901Z,100.00
2022-09-28T04:55:05.521Z,100.00
2022-09-28T04:57:36.161Z,100.00
2022-09-28T05:00:04.288Z,100.00
2022-09-28T05:02:34.081Z,100.00
2022-09-28T05:05:30.138Z,100.00
2022-09-28T05:08:29.978Z,100.00
2022-09-28T05:11:06.198Z,100.00
2022-09-28T05:13:41.854Z,100.00
2022-09-28T05:16:10.112Z,100.00
2022-09-28T05:18:55.949Z,100.00
2022-09-28T05:21:25.229Z,100.00
2022-09-28T05:23:52.565Z,100.00
2022-09-28T05:26:19.722Z,100.00
2022-09-28T05:28:46.544Z,100.00
2022-09-28T05:31:36.914Z,100.00
2022-09-28T05:34:11.319Z,100.00
2022-09-28T05:36:40.401Z,100.00
2022-09-28T05:39:07.671Z,100.00
2022-09-28T05:41:34.614Z,100.00
2022-09-28T05:44:02.187Z,100.00
2022-09-28T05:46:30.550Z,100.00
2022-09-28T05:49:00.553Z,100.00
2022-09-28T05:51:28.399Z,100.00
2022-09-28T05:53:56.152Z,100.00
2022-09-28T05:56:25.288Z,100.00
2022-09-28T05:58:52.931Z,100.00
2022-09-28T06:01:21.921Z,100.00
2022-09-28T06:03:49.161Z,100.00
2022-09-28T06:06:16.621Z,100.00
2022-09-28T06:08:46.407Z,100.00
2022-09-28T06:11:42.673Z,100.00
2022-09-28T06:14:18.721Z,100.00
2022-09-28T06:16:45.885Z,100.00
2022-09-28T06:19:13.241Z,100.00
2022-09-28T06:22:03.133Z,100.00
2022-09-28T06:24:34.851Z,100.00
2022-09-28T06:27:02.152Z,100.00
2022-09-28T06:29:29.275Z,100.00
2022-09-28T06:31:57.471Z,100.00
2022-09-28T06:34:24.954Z,100.00
2022-09-28T06:36:52.634Z,100.00
2022-09-28T06:39:19.535Z,100.00
2022-09-28T06:41:46.480Z,100.00
2022-09-28T06:44:18.937Z,100.00
2022-09-28T06:47:04.404Z,100.00
2022-09-28T06:50:12.341Z,100.00
2022-09-28T06:52:52.790Z,100.00
2022-09-28T06:55:29.887Z,100.00
2022-09-28T06:58:10.446Z,100.00
2022-09-28T07:00:38.899Z,100.00
2022-09-28T07:03:20.491Z,100.00
2022-09-28T07:06:12.266Z,100.00
2022-09-28T07:09:31.647Z,100.00
2022-09-28T07:12:17.169Z,100.00
2022-09-28T07:14:56.371Z,100.00
2022-09-28T07:17:24.966Z,100.00
2022-09-28T07:19:53.458Z,100.00
2022-09-28T07:22:27.340Z,100.00
2022-09-28T07:25:02.497Z,100.00
2022-09-28T07:27:47.297Z,100.00
2022-09-28T07:30:37.985Z,100.00
2022-09-28T07:33:16.003Z,100.00
2022-09-28T07:35:55.899Z,100.00
2022-09-28T07:38:29.064Z,100.00
2022-09-28T07:41:12.134Z,100.00
2022-09-28T07:43:57.137Z,100.00
2022-09-28T07:46:24.164Z,100.00
2022-09-28T07:48:57.286Z,100.00
2022-09-28T07:51:38.799Z,100.00
2022-09-28T07:54:28.553Z,100.00
2022-09-28T07:56:55.429Z,100.00
2022-09-28T07:59:32.033Z,100.00
2022-09-28T08:02:02.056Z,100.00
2022-09-28T08:04:30.456Z,100.00
2022-09-28T08:06:57.786Z,100.00
2022-09-28T08:09:24.895Z,100.00
2022-09-28T08:12:21.164Z,100.00
2022-09-28T08:15:10.432Z,100.00
2022-09-28T08:17:58.009Z,100.00
2022-09-28T08:20:51.556Z,100.00
2022-09-28T08:23:20.483Z,100.00
2022-09-28T08:25:49.149Z,100.00
2022-09-28T08:28:17.850Z,100.00
2022-09-28T08:30:48.204Z,100.00
2022-09-28T08:33:34.513Z,100.00
2022-09-28T08:36:24.055Z,100.00
2022-09-28T08:39:13.750Z,100.00
2022-09-28T08:42:22.237Z,100.00
2022-09-28T08:45:15.496Z,100.00
2022-09-28T08:48:24.399Z,100.00
2022-09-28T08:51:19.641Z,100.00
2022-09-28T08:54:20.914Z,100.00
2022-09-28T08:57:20.490Z,100.00
2022-09-28T08:59:56.951Z,100.00
2022-09-28T09:02:33.558Z,100.00
2022-09-28T09:05:21.180Z,100.00
2022-09-28T09:08:21.823Z,100.00
2022-09-28T09:10:57.928Z,100.00
2022-09-28T09:13:35.977Z,100.00
2022-09-28T09:16:22.898Z,100.00
2022-09-28T09:19:40.275Z,100.00
2022-09-28T09:22:41.499Z,100.00
2022-09-28T09:25:18.371Z,100.00
2022-09-28T09:28:08.027Z,100.00
2022-09-28T09:31:06.751Z,100.00
2022-09-28T09:34:07.274Z,97.57
2022-09-28T09:36:56.878Z,94.83
2022-09-28T09:39:58.939Z,92.50
2022-09-28T09:42:56.124Z,88.60
2022-09-28T09:45:59.316Z,90.46
2022-09-28T09:49:19.889Z,89.44
2022-09-28T09:51:55.658Z,87.64
2022-09-28T09:54:48.114Z,88.87
2022-09-28T09:57:40.697Z,89.99
2022-09-28T10:00:17.504Z,91.00
2022-09-28T10:03:03.069Z,89.50
2022-09-28T10:05:48.209Z,89.31
2022-09-28T10:08:20.021Z,86.34
2022-09-28T10:10:59.838Z,86.89
2022-09-28T10:13:27.487Z,85.67
2022-09-28T10:16:00.965Z,84.33
2022-09-28T10:18:36.990Z,84.04
2022-09-28T10:21:23.896Z,84.94
2022-09-28T10:24:05.279Z,83.78
2022-09-28T10:26:43.203Z,83.08
2022-09-28T10:29:17.983Z,82.74
2022-09-28T10:31:49.015Z,84.24
2022-09-28T10:34:50.831Z,84.84
2022-09-28T10:37:21.045Z,86.27
2022-09-28T10:40:30.511Z,88.37
2022-09-28T10:43:30.639Z,88.46
2022-09-28T10:46:23.597Z,88.20
2022-09-28T10:49:00.711Z,89.81
2022-09-28T10:51:48.166Z,91.31
2022-09-28T10:54:24.651Z,92.27
2022-09-28T10:56:54.134Z,93.56
2022-09-28T10:59:31.870Z,95.32
2022-09-28T11:02:27.267Z,95.49
2022-09-28T11:05:03.677Z,96.39
2022-09-28T11:07:47.035Z,97.80
2022-09-28T11:10:26.251Z,99.40
2022-09-28T11:12:57.555Z,98.78
2022-09-28T11:15:29.974Z,98.30
2022-09-28T11:18:19.479Z,95.63
2022-09-28T11:20:46.448Z,93.47
2022-09-28T11:23:20.657Z,90.74
2022-09-28T11:26:19.805Z,88.25
2022-09-28T11:28:53.418Z,84.95
2022-09-28T11:31:32.023Z,83.21
2022-09-28T11:34:36.519Z,81.34
2022-09-28T11:37:44.584Z,77.16
2022-09-28T11:40:27.035Z,77.13
2022-09-28T11:43:09.088Z,75.64
2022-09-28T11:45:49.116Z,74.60
2022-09-28T11:48:25.682Z,75.63
2022-09-28T11:51:00.292Z,73.32
2022-09-28T11:53:38.884Z,73.54
2022-09-28T11:56:29.031Z,74.74
2022-09-28T11:59:00.663Z,75.86
2022-09-28T12:01:53.652Z,74.22
2022-09-28T12:04:36.978Z,72.04
2022-09-28T12:07:24.065Z,72.05
2022-09-28T12:10:02.477Z,71.91
2022-09-28T12:12:47.923Z,67.55
2022-09-28T12:15:35.015Z,68.97
2022-09-28T12:18:22.900Z,68.06
2022-09-28T12:21:04.429Z,68.21
2022-09-28T12:23:36.211Z,69.60
2022-09-28T12:26:06.236Z,72.00
2022-09-28T12:28:43.942Z,73.57
2022-09-28T12:31:17.959Z,74.45
2022-09-28T12:33:48.490Z,73.17
2022-09-28T12:36:41.576Z,74.65
2022-09-28T12:39:46.943Z,75.45
2022-09-28T12:42:46.813Z,78.02
2022-09-28T12:45:53.135Z,78.63
2022-09-28T12:48:27.641Z,77.22
2022-09-28T12:51:33.201Z,78.15
2022-09-28T12:54:05.849Z,79.63
2022-09-28T12:57:04.057Z,80.22
2022-09-28T12:59:53.015Z,79.51
2022-09-28T13:02:42.268Z,77.58
2022-09-28T13:05:34.522Z,78.75
2022-09-28T13:08:22.679Z,79.06
2022-09-28T13:11:18.222Z,77.00
2022-09-28T13:14:19.691Z,76.47
2022-09-28T13:17:00.995Z,77.75
2022-09-28T13:19:46.907Z,77.25
2022-09-28T13:22:44.737Z,76.97
2022-09-28T13:25:17.112Z,76.72
2022-09-28T13:28:01.640Z,78.08
2022-09-28T13:30:29.355Z,78.94
2022-09-28T13:32:57.985Z,78.32
2022-09-28T13:35:25.368Z,77.47
2022-09-28T13:38:20.972Z,77.73
2022-09-28T13:41:06.136Z,80.15
2022-09-28T13:43:53.593Z,79.75
2022-09-28T13:46:32.407Z,77.99
2022-09-28T13:49:05.020Z,77.61
2022-09-28T13:51:38.824Z,78.71
2022-09-28T13:54:50.894Z,79.92
2022-09-28T13:57:29.478Z,81.63
2022-09-28T14:00:31.008Z,79.82
2022-09-28T14:03:42.268Z,79.61
2022-09-28T14:06:23.685Z,77.41
2022-09-28T14:08:59.212Z,76.93
2022-09-28T14:11:34.491Z,78.48
2022-09-28T14:14:05.656Z,79.98
2022-09-28T14:16:34.287Z,80.41
2022-09-28T14:19:18.689Z,79.97
2022-09-28T14:21:51.517Z,80.02
2022-09-28T14:24:36.860Z,80.27
2022-09-28T14:27:22.559Z,79.57
2022-09-28T14:30:11.688Z,78.95
2022-09-28T14:32:41.220Z,78.84
2022-09-28T14:35:19.788Z,79.31
2022-09-28T14:38:08.798Z,81.13
2022-09-28T14:41:15.433Z,84.80
2022-09-28T14:43:44.979Z,84.08
2022-09-28T14:46:11.862Z,84.50
2022-09-28T14:48:43.251Z,83.75
2022-09-28T14:51:26.352Z,82.64
2022-09-28T14:53:56.270Z,81.88
2022-09-28T14:56:24.124Z,81.59
2022-09-28T14:58:55.030Z,80.99
2022-09-28T15:01:24.952Z,81.25
2022-09-28T15:04:04.765Z,82.27
2022-09-28T15:06:47.915Z,82.26
2022-09-28T15:09:35.429Z,80.03
2022-09-28T15:12:08.192Z,80.93
2022-09-28T15:14:42.656Z,82.45
2022-09-28T15:17:11.266Z,82.71
2022-09-28T15:19:40.994Z,83.14
2022-09-28T15:22:18.188Z,85.36
2022-09-28T15:24:53.766Z,85.72
2022-09-28T15:27:20.966Z,85.65
2022-09-28T15:30:01.919Z,86.60
2022-09-28T15:32:31.858Z,86.86
2022-09-28T15:35:14.559Z,86.02
2022-09-28T15:37:42.476Z,86.28
2022-09-28T15:40:16.727Z,88.42
2022-09-28T15:42:45.415Z,88.50
2022-09-28T15:45:34.158Z,90.12
2022-09-28T15:48:27.194Z,90.67
2022-09-28T15:51:12.502Z,91.48
2022-09-28T15:54:23.897Z,92.05
2022-09-28T15:56:59.783Z,92.07
2022-09-28T15:59:38.269Z,92.73
2022-09-28T16:02:12.822Z,93.46
2022-09-28T16:04:56.293Z,94.56
2022-09-28T16:07:36.281Z,95.46
2022-09-28T16:10:25.810Z,95.88
2022-09-28T16:12:59.027Z,97.41
2022-09-28T16:15:37.214Z,98.13
2022-09-28T16:18:13.230Z,98.76
2022-09-28T16:20:41.212Z,99.00
2022-09-28T16:23:16.940Z,99.42
2022-09-28T16:26:00.539Z,100.00
2022-09-28T16:28:34.623Z,100.00
2022-09-28T16:31:22.679Z,100.00
2022-09-28T16:33:56.930Z,100.00
2022-09-28T16:36:27.498Z,100.00
2022-09-28T16:38:55.035Z,100.00
2022-09-28T16:41:27.674Z,100.00
2022-09-28T16:44:02.191Z,100.00
2022-09-28T16:46:37.468Z,100.00
2022-09-28T16:49:06.791Z,100.00
2022-09-28T16:51:33.903Z,100.00
2022-09-28T16:54:33.370Z,100.00
2022-09-28T16:57:00.622Z,100.00
2022-09-28T16:59:28.404Z,100.00
2022-09-28T17:01:56.947Z,100.00
2022-09-28T17:04:25.653Z,100.00
2022-09-28T17:06:54.586Z,100.00
2022-09-28T17:09:22.715Z,100.00
2022-09-28T17:11:56.155Z,100.00
2022-09-28T17:14:24.151Z,100.00
2022-09-28T17:17:13.760Z,100.00
2022-09-28T17:19:41.527Z,100.00
2022-09-28T17:22:09.276Z,100.00
2022-09-28T17:24:36.693Z,100.00
2022-09-28T17:27:04.378Z,100.00
2022-09-28T17:29:32.715Z,100.00
2022-09-28T17:31:59.572Z,100.00
2022-09-28T17:34:26.693Z,100.00
2022-09-28T17:36:53.910Z,100.00
2022-09-28T17:39:20.706Z,100.00
2022-09-28T17:41:47.931Z,100.00
2022-09-28T17:44:16.045Z,100.00
2022-09-28T17:46:47.598Z,100.00
2022-09-28T17:49:15.123Z,100.00
2022-09-28T17:51:42.145Z,100.00
2022-09-28T17:54:09.404Z,100.00
2022-09-28T17:56:36.746Z,100.00
2022-09-28T17:59:06.656Z,100.00
2022-09-28T18:01:34.906Z,100.00
2022-09-28T18:04:03.815Z,100.00
2022-09-28T18:06:33.784Z,100.00
2022-09-28T18:09:05.268Z,100.00
2022-09-28T18:11:33.895Z,100.00
2022-09-28T18:14:01.078Z,100.00
2022-09-28T18:16:29.034Z,100.00
2022-09-28T18:18:56.217Z,100.00
2022-09-28T18:21:23.044Z,100.00
2022-09-28T18:23:49.898Z,100.00
2022-09-28T18:26:19.652Z,100.00
2022-09-28T18:28:47.012Z,100.00
2022-09-28T18:31:15.599Z,100.00
2022-09-28T18:33:52.599Z,100.00
2022-09-28T18:36:19.560Z,100.00
2022-09-28T18:38:46.481Z,100.00
2022-09-28T18:41:15.776Z,100.00
2022-09-28T18:43:49.254Z,100.00
2022-09-28T18:46:19.934Z,100.00
2022-09-28T18:48:47.838Z,100.00
2022-09-28T18:51:14.913Z,100.00
2022-09-28T18:53:42.271Z,100.00
2022-09-28T18:56:11.784Z,100.00
2022-09-28T18:58:40.331Z,100.00
2022-09-28T19:01:29.404Z,100.00
2022-09-28T19:04:01.969Z,100.00
2022-09-28T19:06:29.857Z,100.00
2022-09-28T19:08:57.938Z,100.00
2022-09-28T19:11:25.819Z,100.00
2022-09-28T19:13:54.458Z,100.00
2022-09-28T19:16:29.143Z,100.00
2022-09-28T19:19:00.981Z,100.00
2022-09-28T19:21:28.026Z,100.00
2022-09-28T19:23:55.758Z,100.00
2022-09-28T19:26:27.523Z,100.00
2022-09-28T19:28:56.706Z,100.00
2022-09-28T19:31:24.289Z,100.00
2022-09-28T19:33:51.031Z,100.00
2022-09-28T19:36:23.638Z,100.00
2022-09-28T19:38:55.465Z,100.00
2022-09-28T19:41:43.927Z,100.00
2022-09-28T19:44:27.664Z,100.00
2022-09-28T19:46:58.154Z,100.00
2022-09-28T19:49:26.977Z,100.00
2022-09-28T19:52:12.829Z,100.00
2022-09-28T19:54:41.197Z,100.00
2022-09-28T19:57:08.880Z,100.00
2022-09-28T19:59:37.493Z,100.00
2022-09-28T20:02:06.979Z,100.00
2022-09-28T20:04:34.533Z,100.00
2022-09-28T20:07:02.082Z,100.00
2022-09-28T20:09:29.254Z,100.00
2022-09-28T20:11:56.325Z,100.00
2022-09-28T20:14:25.788Z,100.00
2022-09-28T20:16:55.312Z,100.00
2022-09-28T20:19:23.408Z,100.00
2022-09-28T20:21:51.122Z,100.00
2022-09-28T20:24:18.473Z,100.00
2022-09-28T20:26:46.048Z,100.00
2022-09-28T20:29:13.283Z,100.00
2022-09-28T20:31:40.465Z,100.00
2022-09-28T20:34:07.556Z,100.00
2022-09-28T20:36:34.441Z,100.00
2022-09-28T20:39:02.283Z,100.00
2022-09-28T20:41:36.962Z,100.00
2022-09-28T20:44:06.299Z,100.00
2022-09-28T20:46:37.319Z,100.00
2022-09-28T20:49:05.415Z,100.00
2022-09-28T20:51:32.474Z,100.00
2022-09-28T20:53:59.983Z,100.00
2022-09-28T20:56:38.070Z,100.00
2022-09-28T20:59:10.389Z,100.00
2022-09-28T21:01:37.562Z,100.00
2022-09-28T21:04:06.701Z,100.00
2022-09-28T21:06:38.812Z,100.00
2022-09-28T21:09:07.407Z,100.00
2022-09-28T21:11:35.779Z,100.00
2022-09-28T21:14:06.605Z,100.00
2022-09-28T21:16:35.384Z,100.00
2022-09-28T21:19:03.083Z,100.00
2022-09-28T21:21:30.663Z,100.00
2022-09-28T21:23:58.572Z,100.00
2022-09-28T21:26:29.649Z,100.00
2022-09-28T21:29:02.171Z,100.00
2022-09-28T21:31:32.694Z,100.00
2022-09-28T21:34:00.263Z,100.00
2022-09-28T21:36:27.398Z,100.00
2022-09-28T21:38:56.121Z,100.00
2022-09-28T21:41:24.240Z,100.00
2022-09-28T21:43:51.585Z,100.00
2022-09-28T21:46:18.888Z,100.00
2022-09-28T21:48:45.826Z,100.00
2022-09-28T21:51:16.112Z,100.00
2022-09-28T21:53:43.294Z,100.00
2022-09-28T21:56:13.013Z,100.00
2022-09-28T21:58:40.370Z,100.00
2022-09-28T22:01:14.683Z,100.00
2022-09-28T22:03:44.157Z,100.00
2022-09-28T22:06:11.702Z,100.00
2022-09-28T22:08:39.206Z,100.00
2022-09-28T22:11:11.301Z,100.00
2022-09-28T22:13:43.176Z,100.00
2022-09-28T22:16:11.985Z,100.00
2022-09-28T22:18:38.942Z,100.00
2022-09-28T22:21:11.768Z,100.00
2022-09-28T22:23:39.814Z,100.00
2022-09-28T22:26:11.433Z,100.00
2022-09-28T22:28:40.042Z,100.00
2022-09-28T22:31:06.940Z,100.00
2022-09-28T22:33:34.157Z,100.00
2022-09-28T22:36:01.391Z,100.00
2022-09-28T22:38:32.076Z,100.00
2022-09-28T22:40:59.175Z,100.00
2022-09-28T22:43:26.913Z,100.00
2022-09-28T22:46:09.533Z,100.00
2022-09-28T22:48:36.608Z,100.00
2022-09-28T22:51:06.219Z,100.00
2022-09-28T22:53:33.986Z,100.00
2022-09-28T22:56:04.048Z,100.00
2022-09-28T22:58:31.584Z,100.00
2022-09-28T23:01:15.506Z,100.00
2022-09-28T23:03:42.791Z,100.00
2022-09-28T23:06:11.217Z,100.00
2022-09-28T23:08:38.728Z,100.00
2022-09-28T23:11:06.259Z,100.00
2022-09-28T23:13:35.085Z,100.00
2022-09-28T23:16:07.933Z,100.00
2022-09-28T23:18:37.217Z,100.00
2022-09-28T23:21:10.436Z,100.00
2022-09-28T23:23:37.330Z,100.00
2022-09-28T23:26:12.727Z,100.00
2022-09-28T23:28:39.669Z,100.00
2022-09-28T23:31:11.642Z,100.00
2022-09-28T23:33:38.708Z,100.00
2022-09-28T23:36:06.306Z,100.00
2022-09-28T23:38:33.139Z,100.00
2022-09-28T23:41:00.789Z,100.00
2022-09-28T23:43:27.852Z,100.00
2022-09-28T23:45:54.627Z,100.00
2022-09-28T23:48:21.523Z,100.00
2022-09-28T23:50:48.767Z,100.00
2022-09-28T23:53:15.787Z,100.00
2022-09-28T23:55:43.914Z,100.00
2022-09-28T23:58:11.667Z,100.00
